SMZO/ORG METAR and TAF weather

Enter ICAO airport designator
Station Type Date Time Source
SMZO METAR 2019/12/16 00:00 UTC NOAA

SMZO 160000Z 05005KT 9999 FEW010 26/23 Q1011 NOSIG


Station Type Date Time Source
SMZO Decoded METAR 2019/12/16 00:00 UTC NOAA

Station name not available
Dec 15, 2019 - 07:00 PM EST / 2019.12.16 0000 UTC
Wind: from the NE (050 degrees) at 6 MPH (5 KT):0
Visibility: greater than 7 mile(s):0
Sky conditions: mostly clear
Temperature: 78 F (26 C)
Dew Point: 73 F (23 C)
Relative Humidity: 83%
Pressure (altimeter): 29.85 in. Hg (1011 hPa)
ob: SMZO 160000Z 05005KT 9999 FEW010 26/23 Q1011 NOSIG
cycle: 0

Station Type Date Time Source
SMZO TAF 2019/12/16 06:21 UTC NOAA

TAF TAF SMZO 160400Z 1606/1706 08005KT 9999 FEW010 SCT025 TX31/1618Z TN24/1609Z
TEMPO 1608/1611 5000 SHRA SCT010
BECMG 1611/1613 BKN015
TEMPO 1615/1621 4000 SHRA TSRA FEW015CB SCT010

Example: see airport list